sensor_id;sensor_type;location;lat;lon;timestamp;temperature;humidity
12166;DHT22;6146;48.128;11.476;2022-11-15T00:02:07;4.40;99.90
12166;DHT22;6146;48.128;11.476;2022-11-15T00:04:33;4.40;99.90
12166;DHT22;6146;48.128;11.476;2022-11-15T00:06:59;4.40;99.90
12166;DHT22;6146;48.128;11.476;2022-11-15T00:09:24;4.40;99.90
12166;DHT22;6146;48.128;11.476;2022-11-15T00:11:51;4.30;99.90
12166;DHT22;6146;48.128;11.476;2022-11-15T00:14:17;4.40;99.90
12166;DHT22;6146;48.128;11.476;2022-11-15T00:16:43;4.30;99.90
12166;DHT22;6146;48.128;11.476;2022-11-15T00:19:08;4.30;99.90
12166;DHT22;6146;48.128;11.476;2022-11-15T00:21:34;4.30;99.90
12166;DHT22;6146;48.128;11.476;2022-11-15T00:23:59;4.30;99.90
12166;DHT22;6146;48.128;11.476;2022-11-15T00:26:25;4.40;99.90
12166;DHT22;6146;48.128;11.476;2022-11-15T00:28:52;4.40;99.90
12166;DHT22;6146;48.128;11.476;2022-11-15T00:31:18;4.40;99.90
12166;DHT22;6146;48.128;11.476;2022-11-15T00:33:44;4.50;99.90
12166;DHT22;6146;48.128;11.476;2022-11-15T00:36:10;4.50;99.90
12166;DHT22;6146;48.128;11.476;2022-11-15T00:38:38;4.70;99.90
12166;DHT22;6146;48.128;11.476;2022-11-15T00:41:05;4.80;99.90
12166;DHT22;6146;48.128;11.476;2022-11-15T00:43:31;4.80;99.90
12166;DHT22;6146;48.128;11.476;2022-11-15T00:45:57;4.80;99.90
12166;DHT22;6146;48.128;11.476;2022-11-15T00:48:23;4.80;99.90
12166;DHT22;6146;48.128;11.476;2022-11-15T00:50:49;4.90;99.90
12166;DHT22;6146;48.128;11.476;2022-11-15T00:53:14;4.90;99.90
12166;DHT22;6146;48.128;11.476;2022-11-15T00:55:40;5.00;99.90
12166;DHT22;6146;48.128;11.476;2022-11-15T00:58:05;5.10;99.90
12166;DHT22;6146;48.128;11.476;2022-11-15T01:00:31;5.10;99.90
12166;DHT22;6146;48.128;11.476;2022-11-15T01:02:56;5.10;99.90
12166;DHT22;6146;48.128;11.476;2022-11-15T01:05:22;5.10;99.90
12166;DHT22;6146;48.128;11.476;2022-11-15T01:07:52;5.20;99.90
12166;DHT22;6146;48.128;11.476;2022-11-15T01:10:18;5.20;99.90
12166;DHT22;6146;48.128;11.476;2022-11-15T01:12:44;5.20;99.90
12166;DHT22;6146;48.128;11.476;2022-11-15T01:15:09;5.20;99.90
12166;DHT22;6146;48.128;11.476;2022-11-15T01:17:35;5.30;99.90
12166;DHT22;6146;48.128;11.476;2022-11-15T01:20:01;5.40;99.90
12166;DHT22;6146;48.128;11.476;2022-11-15T01:22:26;5.50;99.90
12166;DHT22;6146;48.128;11.476;2022-11-15T01:24:52;5.50;99.90
12166;DHT22;6146;48.128;11.476;2022-11-15T01:27:17;5.60;99.90
12166;DHT22;6146;48.128;11.476;2022-11-15T01:29:43;5.60;99.90
12166;DHT22;6146;48.128;11.476;2022-11-15T01:32:09;5.60;99.90
12166;DHT22;6146;48.128;11.476;2022-11-15T01:34:34;5.60;99.90
12166;DHT22;6146;48.128;11.476;2022-11-15T01:37:00;5.60;99.90
12166;DHT22;6146;48.128;11.476;2022-11-15T01:39:26;5.60;99.90
12166;DHT22;6146;48.128;11.476;2022-11-15T01:41:52;5.60;99.90
12166;DHT22;6146;48.128;11.476;2022-11-15T01:44:38;5.50;99.90
12166;DHT22;6146;48.128;11.476;2022-11-15T01:47:13;5.30;99.90
12166;DHT22;6146;48.128;11.476;2022-11-15T01:49:54;5.30;99.90
12166;DHT22;6146;48.128;11.476;2022-11-15T01:52:22;5.10;99.90
12166;DHT22;6146;48.128;11.476;2022-11-15T01:54:53;5.00;99.90
12166;DHT22;6146;48.128;11.476;2022-11-15T01:57:20;4.80;99.90
12166;DHT22;6146;48.128;11.476;2022-11-15T01:59:46;4.40;99.90
12166;DHT22;6146;48.128;11.476;2022-11-15T02:02:12;4.20;99.90
12166;DHT22;6146;48.128;11.476;2022-11-15T02:04:44;4.20;99.90
12166;DHT22;6146;48.128;11.476;2022-11-15T02:07:12;4.10;99.90
12166;DHT22;6146;48.128;11.476;2022-11-15T02:09:39;4.10;99.90
12166;DHT22;6146;48.128;11.476;2022-11-15T02:12:06;4.00;99.90
12166;DHT22;6146;48.128;11.476;2022-11-15T02:14:34;3.90;99.90
12166;DHT22;6146;48.128;11.476;2022-11-15T02:20:35;3.80;99.90
12166;DHT22;6146;48.128;11.476;2022-11-15T02:26:39;3.70;99.90
12166;DHT22;6146;48.128;11.476;2022-11-15T02:39:47;3.40;99.90
12166;DHT22;6146;48.128;11.476;2022-11-15T02:42:25;3.30;99.90
12166;DHT22;6146;48.128;11.476;2022-11-15T02:45:13;3.30;99.90
12166;DHT22;6146;48.128;11.476;2022-11-15T02:47:43;3.30;99.90
12166;DHT22;6146;48.128;11.476;2022-11-15T02:50:12;3.20;99.90
12166;DHT22;6146;48.128;11.476;2022-11-15T02:52:38;3.20;99.90
12166;DHT22;6146;48.128;11.476;2022-11-15T02:55:04;3.20;99.90
12166;DHT22;6146;48.128;11.476;2022-11-15T02:57:51;3.10;99.90
12166;DHT22;6146;48.128;11.476;2022-11-15T03:00:19;3.10;99.90
12166;DHT22;6146;48.128;11.476;2022-11-15T03:05:56;3.10;99.90
12166;DHT22;6146;48.128;11.476;2022-11-15T03:08:47;3.20;99.90
12166;DHT22;6146;48.128;11.476;2022-11-15T03:11:16;3.20;99.90
12166;DHT22;6146;48.128;11.476;2022-11-15T03:16:45;3.30;99.90
12166;DHT22;6146;48.128;11.476;2022-11-15T03:21:44;3.30;99.90
12166;DHT22;6146;48.128;11.476;2022-11-15T03:24:11;3.30;99.90
12166;DHT22;6146;48.128;11.476;2022-11-15T03:26:38;3.30;99.90
12166;DHT22;6146;48.128;11.476;2022-11-15T03:29:19;3.30;99.90
12166;DHT22;6146;48.128;11.476;2022-11-15T03:31:50;3.30;99.90
12166;DHT22;6146;48.128;11.476;2022-11-15T03:36:53;3.20;99.90
12166;DHT22;6146;48.128;11.476;2022-11-15T03:39:19;3.20;99.90
12166;DHT22;6146;48.128;11.476;2022-11-15T03:44:58;3.20;99.90
12166;DHT22;6146;48.128;11.476;2022-11-15T03:47:31;3.10;99.90
12166;DHT22;6146;48.128;11.476;2022-11-15T03:50:12;3.10;99.90
12166;DHT22;6146;48.128;11.476;2022-11-15T03:52:39;3.10;99.90
12166;DHT22;6146;48.128;11.476;2022-11-15T03:55:07;3.10;99.90
12166;DHT22;6146;48.128;11.476;2022-11-15T03:57:34;3.00;99.90
12166;DHT22;6146;48.128;11.476;2022-11-15T04:00:00;1.60;99.90
12166;DHT22;6146;48.128;11.476;2022-11-15T04:02:25;3.00;99.90
12166;DHT22;6146;48.128;11.476;2022-11-15T04:04:51;2.90;99.90
12166;DHT22;6146;48.128;11.476;2022-11-15T04:07:16;2.90;99.90
12166;DHT22;6146;48.128;11.476;2022-11-15T04:09:42;2.90;99.90
12166;DHT22;6146;48.128;11.476;2022-11-15T04:12:26;2.80;99.90
12166;DHT22;6146;48.128;11.476;2022-11-15T04:15:24;2.80;99.90
12166;DHT22;6146;48.128;11.476;2022-11-15T04:20:19;2.70;99.90
12166;DHT22;6146;48.128;11.476;2022-11-15T04:23:10;2.70;99.90
12166;DHT22;6146;48.128;11.476;2022-11-15T04:25:56;2.70;99.90
12166;DHT22;6146;48.128;11.476;2022-11-15T04:28:23;2.60;99.90
12166;DHT22;6146;48.128;11.476;2022-11-15T04:30:48;2.60;99.90
12166;DHT22;6146;48.128;11.476;2022-11-15T04:33:14;2.60;99.90
12166;DHT22;6146;48.128;11.476;2022-11-15T04:35:40;2.60;99.90
12166;DHT22;6146;48.128;11.476;2022-11-15T04:38:08;2.70;99.90
12166;DHT22;6146;48.128;11.476;2022-11-15T04:40:34;2.70;99.90
12166;DHT22;6146;48.128;11.476;2022-11-15T04:43:00;2.70;99.90
12166;DHT22;6146;48.128;11.476;2022-11-15T04:45:26;2.60;99.90
12166;DHT22;6146;48.128;11.476;2022-11-15T04:47:51;2.60;99.90
12166;DHT22;6146;48.128;11.476;2022-11-15T04:50:17;2.70;99.90
12166;DHT22;6146;48.128;11.476;2022-11-15T04:52:49;2.70;99.90
12166;DHT22;6146;48.128;11.476;2022-11-15T04:55:15;2.60;99.90
12166;DHT22;6146;48.128;11.476;2022-11-15T04:57:41;2.60;99.90
12166;DHT22;6146;48.128;11.476;2022-11-15T05:00:10;2.60;99.90
12166;DHT22;6146;48.128;11.476;2022-11-15T05:02:36;2.60;99.90
12166;DHT22;6146;48.128;11.476;2022-11-15T05:05:20;2.60;99.90
12166;DHT22;6146;48.128;11.476;2022-11-15T05:07:46;2.50;99.90
12166;DHT22;6146;48.128;11.476;2022-11-15T05:10:12;2.50;99.90
12166;DHT22;6146;48.128;11.476;2022-11-15T05:12:37;2.40;99.90
12166;DHT22;6146;48.128;11.476;2022-11-15T05:15:03;2.40;99.90
12166;DHT22;6146;48.128;11.476;2022-11-15T05:17:29;2.40;99.90
12166;DHT22;6146;48.128;11.476;2022-11-15T05:19:55;2.40;99.90
12166;DHT22;6146;48.128;11.476;2022-11-15T05:22:20;2.40;99.90
12166;DHT22;6146;48.128;11.476;2022-11-15T05:24:46;2.30;99.90
12166;DHT22;6146;48.128;11.476;2022-11-15T05:27:11;2.30;99.90
12166;DHT22;6146;48.128;11.476;2022-11-15T05:29:37;2.30;99.90
12166;DHT22;6146;48.128;11.476;2022-11-15T05:32:06;2.30;99.90
12166;DHT22;6146;48.128;11.476;2022-11-15T05:34:33;2.30;99.90
12166;DHT22;6146;48.128;11.476;2022-11-15T05:36:59;2.30;99.90
12166;DHT22;6146;48.128;11.476;2022-11-15T05:39:24;2.20;99.90
12166;DHT22;6146;48.128;11.476;2022-11-15T05:42:10;2.20;99.90
12166;DHT22;6146;48.128;11.476;2022-11-15T05:44:38;2.20;99.90
12166;DHT22;6146;48.128;11.476;2022-11-15T05:47:08;2.20;99.90
12166;DHT22;6146;48.128;11.476;2022-11-15T05:49:36;2.10;99.90
12166;DHT22;6146;48.128;11.476;2022-11-15T05:52:05;2.20;99.90
12166;DHT22;6146;48.128;11.476;2022-11-15T05:54:33;2.20;99.90
12166;DHT22;6146;48.128;11.476;2022-11-15T05:56:59;2.20;99.90
12166;DHT22;6146;48.128;11.476;2022-11-15T05:59:25;2.20;99.90
12166;DHT22;6146;48.128;11.476;2022-11-15T06:01:53;2.30;99.90
12166;DHT22;6146;48.128;11.476;2022-11-15T06:04:18;2.20;99.90
12166;DHT22;6146;48.128;11.476;2022-11-15T06:06:44;2.20;99.90
12166;DHT22;6146;48.128;11.476;2022-11-15T06:09:09;2.30;99.90
12166;DHT22;6146;48.128;11.476;2022-11-15T06:11:35;2.20;99.90
12166;DHT22;6146;48.128;11.476;2022-11-15T06:14:01;2.30;99.90
12166;DHT22;6146;48.128;11.476;2022-11-15T06:16:26;2.30;99.90
12166;DHT22;6146;48.128;11.476;2022-11-15T06:18:52;2.40;99.90
12166;DHT22;6146;48.128;11.476;2022-11-15T06:21:17;2.40;99.90
12166;DHT22;6146;48.128;11.476;2022-11-15T06:23:43;2.40;99.90
12166;DHT22;6146;48.128;11.476;2022-11-15T06:26:08;2.50;99.90
12166;DHT22;6146;48.128;11.476;2022-11-15T06:28:34;2.50;99.90
12166;DHT22;6146;48.128;11.476;2022-11-15T06:31:04;2.60;99.90
12166;DHT22;6146;48.128;11.476;2022-11-15T06:33:29;2.60;99.90
12166;DHT22;6146;48.128;11.476;2022-11-15T06:35:55;2.60;99.90
12166;DHT22;6146;48.128;11.476;2022-11-15T06:38:20;2.70;99.90
12166;DHT22;6146;48.128;11.476;2022-11-15T06:40:46;2.70;99.90
12166;DHT22;6146;48.128;11.476;2022-11-15T06:43:12;2.80;99.90
12166;DHT22;6146;48.128;11.476;2022-11-15T06:45:37;2.80;99.90
12166;DHT22;6146;48.128;11.476;2022-11-15T06:48:03;2.90;99.90
12166;DHT22;6146;48.128;11.476;2022-11-15T06:50:29;3.00;99.90
12166;DHT22;6146;48.128;11.476;2022-11-15T06:52:54;3.00;99.90
12166;DHT22;6146;48.128;11.476;2022-11-15T06:55:20;3.10;99.90
12166;DHT22;6146;48.128;11.476;2022-11-15T06:57:47;3.10;99.90
12166;DHT22;6146;48.128;11.476;2022-11-15T07:00:13;3.10;99.90
12166;DHT22;6146;48.128;11.476;2022-11-15T07:02:39;3.20;99.90
12166;DHT22;6146;48.128;11.476;2022-11-15T07:05:05;3.20;99.90
12166;DHT22;6146;48.128;11.476;2022-11-15T07:07:31;3.30;99.90
12166;DHT22;6146;48.128;11.476;2022-11-15T07:09:56;3.40;99.90
12166;DHT22;6146;48.128;11.476;2022-11-15T07:12:22;3.50;99.90
12166;DHT22;6146;48.128;11.476;2022-11-15T07:14:47;3.80;99.90
12166;DHT22;6146;48.128;11.476;2022-11-15T07:17:13;5.30;99.90
12166;DHT22;6146;48.128;11.476;2022-11-15T07:19:38;7.30;99.90
12166;DHT22;6146;48.128;11.476;2022-11-15T07:22:04;9.20;99.90
12166;DHT22;6146;48.128;11.476;2022-11-15T07:24:29;10.90;99.90
12166;DHT22;6146;48.128;11.476;2022-11-15T07:26:55;12.70;99.90
12166;DHT22;6146;48.128;11.476;2022-11-15T07:29:20;14.10;99.90
12166;DHT22;6146;48.128;11.476;2022-11-15T07:31:46;14.80;99.90
12166;DHT22;6146;48.128;11.476;2022-11-15T07:34:11;14.80;99.40
12166;DHT22;6146;48.128;11.476;2022-11-15T07:36:37;14.80;99.00
12166;DHT22;6146;48.128;11.476;2022-11-15T07:39:02;15.90;95.50
12166;DHT22;6146;48.128;11.476;2022-11-15T07:41:28;17.10;92.50
12166;DHT22;6146;48.128;11.476;2022-11-15T07:43:54;18.40;88.20
12166;DHT22;6146;48.128;11.476;2022-11-15T07:46:20;19.30;81.40
12166;DHT22;6146;48.128;11.476;2022-11-15T07:48:46;19.60;76.30
12166;DHT22;6146;48.128;11.476;2022-11-15T07:51:13;19.50;71.80
12166;DHT22;6146;48.128;11.476;2022-11-15T07:53:39;19.80;69.10
12166;DHT22;6146;48.128;11.476;2022-11-15T07:56:08;20.20;66.20
12166;DHT22;6146;48.128;11.476;2022-11-15T07:58:34;20.90;62.70
12166;DHT22;6146;48.128;11.476;2022-11-15T08:01:04;21.30;60.70
12166;DHT22;6146;48.128;11.476;2022-11-15T08:03:30;21.90;59.40
12166;DHT22;6146;48.128;11.476;2022-11-15T08:05:56;22.60;57.20
12166;DHT22;6146;48.128;11.476;2022-11-15T08:08:21;22.70;54.70
12166;DHT22;6146;48.128;11.476;2022-11-15T08:10:47;22.40;53.70
12166;DHT22;6146;48.128;11.476;2022-11-15T08:13:13;22.10;54.00
12166;DHT22;6146;48.128;11.476;2022-11-15T08:15:39;22.60;53.70
12166;DHT22;6146;48.128;11.476;2022-11-15T08:18:15;21.70;53.90
12166;DHT22;6146;48.128;11.476;2022-11-15T08:20:41;21.50;54.30
12166;DHT22;6146;48.128;11.476;2022-11-15T08:23:07;21.90;53.70
12166;DHT22;6146;48.128;11.476;2022-11-15T08:25:36;21.90;53.90
12166;DHT22;6146;48.128;11.476;2022-11-15T08:28:06;21.60;54.40
12166;DHT22;6146;48.128;11.476;2022-11-15T08:30:36;22.00;53.20
12166;DHT22;6146;48.128;11.476;2022-11-15T08:33:02;21.90;52.60
12166;DHT22;6146;48.128;11.476;2022-11-15T08:35:28;22.90;52.10
12166;DHT22;6146;48.128;11.476;2022-11-15T08:37:54;23.90;49.20
12166;DHT22;6146;48.128;11.476;2022-11-15T08:40:19;24.50;48.00
12166;DHT22;6146;48.128;11.476;2022-11-15T08:42:48;24.80;49.00
12166;DHT22;6146;48.128;11.476;2022-11-15T08:45:14;24.70;46.60
12166;DHT22;6146;48.128;11.476;2022-11-15T08:47:40;24.70;48.10
12166;DHT22;6146;48.128;11.476;2022-11-15T08:50:06;24.70;47.70
12166;DHT22;6146;48.128;11.476;2022-11-15T08:52:32;24.20;48.50
12166;DHT22;6146;48.128;11.476;2022-11-15T08:54:58;24.20;48.60
12166;DHT22;6146;48.128;11.476;2022-11-15T08:57:24;23.90;48.80
12166;DHT22;6146;48.128;11.476;2022-11-15T08:59:49;23.80;49.40
12166;DHT22;6146;48.128;11.476;2022-11-15T09:02:15;23.50;50.00
12166;DHT22;6146;48.128;11.476;2022-11-15T09:04:42;24.10;47.70
12166;DHT22;6146;48.128;11.476;2022-11-15T09:07:11;24.40;47.80
12166;DHT22;6146;48.128;11.476;2022-11-15T09:09:37;24.30;48.10
12166;DHT22;6146;48.128;11.476;2022-11-15T09:12:03;25.10;47.30
12166;DHT22;6146;48.128;11.476;2022-11-15T09:14:29;25.90;44.70
12166;DHT22;6146;48.128;11.476;2022-11-15T09:16:54;26.70;44.40
12166;DHT22;6146;48.128;11.476;2022-11-15T09:19:21;27.50;42.60
12166;DHT22;6146;48.128;11.476;2022-11-15T09:21:46;28.10;39.90
12166;DHT22;6146;48.128;11.476;2022-11-15T09:24:12;27.30;40.90
12166;DHT22;6146;48.128;11.476;2022-11-15T09:26:38;26.60;42.60
12166;DHT22;6146;48.128;11.476;2022-11-15T09:29:03;27.40;41.10
12166;DHT22;6146;48.128;11.476;2022-11-15T09:31:29;26.50;41.30
12166;DHT22;6146;48.128;11.476;2022-11-15T09:33:55;25.90;42.70
12166;DHT22;6146;48.128;11.476;2022-11-15T09:36:21;25.00;42.60
12166;DHT22;6146;48.128;11.476;2022-11-15T09:38:46;24.80;43.00
12166;DHT22;6146;48.128;11.476;2022-11-15T09:43:58;25.30;42.20
12166;DHT22;6146;48.128;11.476;2022-11-15T09:46:38;26.50;40.90
12166;DHT22;6146;48.128;11.476;2022-11-15T09:49:08;25.70;40.30
12166;DHT22;6146;48.128;11.476;2022-11-15T09:51:36;23.60;42.30
12166;DHT22;6146;48.128;11.476;2022-11-15T09:54:21;22.30;44.50
12166;DHT22;6146;48.128;11.476;2022-11-15T09:56:51;21.60;45.90
12166;DHT22;6146;48.128;11.476;2022-11-15T10:05:24;20.30;48.00
12166;DHT22;6146;48.128;11.476;2022-11-15T10:10:35;19.20;50.00
12166;DHT22;6146;48.128;11.476;2022-11-15T10:13:04;19.30;50.30
12166;DHT22;6146;48.128;11.476;2022-11-15T10:15:33;20.10;48.70
12166;DHT22;6146;48.128;11.476;2022-11-15T10:20:59;22.20;48.00
12166;DHT22;6146;48.128;11.476;2022-11-15T10:23:26;24.10;43.00
12166;DHT22;6146;48.128;11.476;2022-11-15T10:25:55;24.70;41.40
12166;DHT22;6146;48.128;11.476;2022-11-15T10:28:30;24.80;41.70
12166;DHT22;6146;48.128;11.476;2022-11-15T10:30:58;26.00;40.00
12166;DHT22;6146;48.128;11.476;2022-11-15T10:33:33;26.00;41.20
12166;DHT22;6146;48.128;11.476;2022-11-15T10:46:44;29.10;34.30
12166;DHT22;6146;48.128;11.476;2022-11-15T10:49:20;29.60;34.90
12166;DHT22;6146;48.128;11.476;2022-11-15T10:54:43;30.30;32.00
12166;DHT22;6146;48.128;11.476;2022-11-15T10:57:15;28.00;33.30
12166;DHT22;6146;48.128;11.476;2022-11-15T10:59:46;26.80;36.50
12166;DHT22;6146;48.128;11.476;2022-11-15T11:02:47;27.00;35.30
12166;DHT22;6146;48.128;11.476;2022-11-15T11:05:38;27.10;35.20
12166;DHT22;6146;48.128;11.476;2022-11-15T11:10:52;27.30;35.10
12166;DHT22;6146;48.128;11.476;2022-11-15T11:13:32;25.30;37.40
12166;DHT22;6146;48.128;11.476;2022-11-15T11:16:19;24.50;40.70
12166;DHT22;6146;48.128;11.476;2022-11-15T11:18:59;26.40;37.90
12166;DHT22;6146;48.128;11.476;2022-11-15T11:21:46;27.20;36.20
12166;DHT22;6146;48.128;11.476;2022-11-15T11:24:38;26.80;35.90
12166;DHT22;6146;48.128;11.476;2022-11-15T11:27:22;27.00;35.30
12166;DHT22;6146;48.128;11.476;2022-11-15T11:30:14;26.80;35.90
12166;DHT22;6146;48.128;11.476;2022-11-15T11:35:54;25.30;37.20
12166;DHT22;6146;48.128;11.476;2022-11-15T11:41:34;24.10;40.10
12166;DHT22;6146;48.128;11.476;2022-11-15T11:51:54;22.90;41.00
12166;DHT22;6146;48.128;11.476;2022-11-15T11:59:55;24.50;39.20
12166;DHT22;6146;48.128;11.476;2022-11-15T12:02:43;25.00;37.50
12166;DHT22;6146;48.128;11.476;2022-11-15T12:05:35;23.80;39.40
12166;DHT22;6146;48.128;11.476;2022-11-15T12:08:32;22.00;42.00
12166;DHT22;6146;48.128;11.476;2022-11-15T12:11:11;21.90;43.60
12166;DHT22;6146;48.128;11.476;2022-11-15T12:13:40;22.10;42.50
12166;DHT22;6146;48.128;11.476;2022-11-15T12:16:09;21.90;43.40
12166;DHT22;6146;48.128;11.476;2022-11-15T12:18:37;21.20;44.50
12166;DHT22;6146;48.128;11.476;2022-11-15T12:23:53;21.30;44.20
12166;DHT22;6146;48.128;11.476;2022-11-15T12:26:24;20.60;45.50
12166;DHT22;6146;48.128;11.476;2022-11-15T12:28:55;21.50;43.60
12166;DHT22;6146;48.128;11.476;2022-11-15T12:31:35;21.90;42.40
12166;DHT22;6146;48.128;11.476;2022-11-15T12:36:49;21.50;45.00
12166;DHT22;6146;48.128;11.476;2022-11-15T12:39:16;21.50;44.40
12166;DHT22;6146;48.128;11.476;2022-11-15T13:02:24;22.20;43.00
12166;DHT22;6146;48.128;11.476;2022-11-15T13:04:53;21.90;44.10
12166;DHT22;6146;48.128;11.476;2022-11-15T13:25:17;21.20;46.00
12166;DHT22;6146;48.128;11.476;2022-11-15T13:27:48;21.90;44.60
12166;DHT22;6146;48.128;11.476;2022-11-15T13:30:23;22.20;45.00
12166;DHT22;6146;48.128;11.476;2022-11-15T13:32:49;22.40;43.90
12166;DHT22;6146;48.128;11.476;2022-11-15T13:35:25;22.60;43.80
12166;DHT22;6146;48.128;11.476;2022-11-15T13:37:52;22.40;43.70
12166;DHT22;6146;48.128;11.476;2022-11-15T13:40:26;22.90;44.50
12166;DHT22;6146;48.128;11.476;2022-11-15T13:42:53;23.40;43.10
12166;DHT22;6146;48.128;11.476;2022-11-15T13:45:19;23.40;42.80
12166;DHT22;6146;48.128;11.476;2022-11-15T13:47:51;23.00;42.40
12166;DHT22;6146;48.128;11.476;2022-11-15T13:50:17;22.40;44.70
12166;DHT22;6146;48.128;11.476;2022-11-15T13:52:45;21.80;44.80
12166;DHT22;6146;48.128;11.476;2022-11-15T13:55:14;20.00;48.50
12166;DHT22;6146;48.128;11.476;2022-11-15T13:57:46;20.00;49.90
12166;DHT22;6146;48.128;11.476;2022-11-15T14:00:35;19.60;49.40
12166;DHT22;6146;48.128;11.476;2022-11-15T14:03:23;19.40;50.00
12166;DHT22;6146;48.128;11.476;2022-11-15T14:08:32;19.30;51.40
12166;DHT22;6146;48.128;11.476;2022-11-15T14:11:20;19.40;50.20
12166;DHT22;6146;48.128;11.476;2022-11-15T14:16:43;18.40;52.20
12166;DHT22;6146;48.128;11.476;2022-11-15T14:19:12;18.60;52.40
12166;DHT22;6146;48.128;11.476;2022-11-15T14:24:45;19.10;52.70
12166;DHT22;6146;48.128;11.476;2022-11-15T14:27:23;19.10;51.40
12166;DHT22;6146;48.128;11.476;2022-11-15T14:29:49;18.90;51.40
12166;DHT22;6146;48.128;11.476;2022-11-15T14:32:18;18.80;51.60
12166;DHT22;6146;48.128;11.476;2022-11-15T14:34:45;18.70;52.40
12166;DHT22;6146;48.128;11.476;2022-11-15T14:37:26;18.40;53.70
12166;DHT22;6146;48.128;11.476;2022-11-15T14:39:53;18.10;55.50
12166;DHT22;6146;48.128;11.476;2022-11-15T14:42:19;17.60;55.80
12166;DHT22;6146;48.128;11.476;2022-11-15T14:44:45;17.20;56.10
12166;DHT22;6146;48.128;11.476;2022-11-15T14:47:11;16.80;58.10
12166;DHT22;6146;48.128;11.476;2022-11-15T14:49:37;16.50;59.50
12166;DHT22;6146;48.128;11.476;2022-11-15T14:52:38;16.00;61.30
12166;DHT22;6146;48.128;11.476;2022-11-15T14:55:00;15.60;64.30
12166;DHT22;6146;48.128;11.476;2022-11-15T14:57:27;15.20;67.20
12166;DHT22;6146;48.128;11.476;2022-11-15T14:59:53;14.90;69.20
12166;DHT22;6146;48.128;11.476;2022-11-15T15:02:22;14.40;72.80
12166;DHT22;6146;48.128;11.476;2022-11-15T15:04:49;14.20;75.90
12166;DHT22;6146;48.128;11.476;2022-11-15T15:07:15;13.80;79.60
12166;DHT22;6146;48.128;11.476;2022-11-15T15:09:41;13.50;81.80
12166;DHT22;6146;48.128;11.476;2022-11-15T15:12:18;13.30;84.40
12166;DHT22;6146;48.128;11.476;2022-11-15T15:14:44;13.00;89.40
12166;DHT22;6146;48.128;11.476;2022-11-15T15:17:10;12.70;91.80
12166;DHT22;6146;48.128;11.476;2022-11-15T15:19:36;12.50;93.80
12166;DHT22;6146;48.128;11.476;2022-11-15T15:22:01;12.30;95.40
12166;DHT22;6146;48.128;11.476;2022-11-15T15:24:27;12.10;97.40
12166;DHT22;6146;48.128;11.476;2022-11-15T15:26:52;11.90;98.90
12166;DHT22;6146;48.128;11.476;2022-11-15T15:29:18;11.80;99.90
12166;DHT22;6146;48.128;11.476;2022-11-15T15:31:43;11.60;99.90
12166;DHT22;6146;48.128;11.476;2022-11-15T15:34:09;11.50;99.90
12166;DHT22;6146;48.128;11.476;2022-11-15T15:36:35;11.30;99.90
12166;DHT22;6146;48.128;11.476;2022-11-15T15:39:00;11.10;99.90
12166;DHT22;6146;48.128;11.476;2022-11-15T15:41:26;11.00;99.90
12166;DHT22;6146;48.128;11.476;2022-11-15T15:43:51;10.80;99.90
12166;DHT22;6146;48.128;11.476;2022-11-15T15:46:18;10.80;99.90
12166;DHT22;6146;48.128;11.476;2022-11-15T15:48:45;10.70;99.90
12166;DHT22;6146;48.128;11.476;2022-11-15T15:51:11;10.60;99.90
12166;DHT22;6146;48.128;11.476;2022-11-15T15:53:37;10.50;99.90
12166;DHT22;6146;48.128;11.476;2022-11-15T15:56:03;10.50;99.90
12166;DHT22;6146;48.128;11.476;2022-11-15T15:58:29;10.30;99.90
12166;DHT22;6146;48.128;11.476;2022-11-15T16:00:54;10.20;99.90
12166;DHT22;6146;48.128;11.476;2022-11-15T16:03:20;10.20;99.90
12166;DHT22;6146;48.128;11.476;2022-11-15T16:05:45;10.10;99.90
12166;DHT22;6146;48.128;11.476;2022-11-15T16:08:22;10.10;99.90
12166;DHT22;6146;48.128;11.476;2022-11-15T16:10:48;10.10;99.90
12166;DHT22;6146;48.128;11.476;2022-11-15T16:13:14;10.00;99.90
12166;DHT22;6146;48.128;11.476;2022-11-15T16:15:42;10.00;99.90
12166;DHT22;6146;48.128;11.476;2022-11-15T16:18:16;10.00;99.90
12166;DHT22;6146;48.128;11.476;2022-11-15T16:20:47;9.90;99.90
12166;DHT22;6146;48.128;11.476;2022-11-15T16:23:16;9.90;99.90
12166;DHT22;6146;48.128;11.476;2022-11-15T16:25:55;9.90;99.90
12166;DHT22;6146;48.128;11.476;2022-11-15T16:28:28;9.90;99.90
12166;DHT22;6146;48.128;11.476;2022-11-15T16:33:25;9.90;99.90
12166;DHT22;6146;48.128;11.476;2022-11-15T16:35:51;10.00;99.90
12166;DHT22;6146;48.128;11.476;2022-11-15T16:38:17;10.00;99.90
12166;DHT22;6146;48.128;11.476;2022-11-15T16:40:43;10.00;99.90
12166;DHT22;6146;48.128;11.476;2022-11-15T16:43:09;10.00;99.90
12166;DHT22;6146;48.128;11.476;2022-11-15T16:45:35;10.00;99.90
12166;DHT22;6146;48.128;11.476;2022-11-15T16:48:01;10.00;99.90
12166;DHT22;6146;48.128;11.476;2022-11-15T16:50:28;9.90;99.90
12166;DHT22;6146;48.128;11.476;2022-11-15T16:52:58;9.90;99.90
12166;DHT22;6146;48.128;11.476;2022-11-15T16:55:28;9.90;99.90
12166;DHT22;6146;48.128;11.476;2022-11-15T16:57:55;9.80;99.90
12166;DHT22;6146;48.128;11.476;2022-11-15T17:00:23;9.80;99.90
12166;DHT22;6146;48.128;11.476;2022-11-15T17:02:49;9.80;99.90
12166;DHT22;6146;48.128;11.476;2022-11-15T17:05:17;9.70;99.90
12166;DHT22;6146;48.128;11.476;2022-11-15T17:07:46;9.70;99.90
12166;DHT22;6146;48.128;11.476;2022-11-15T17:10:13;9.70;99.90
12166;DHT22;6146;48.128;11.476;2022-11-15T17:12:38;9.60;99.90
12166;DHT22;6146;48.128;11.476;2022-11-15T17:15:05;9.60;99.90
12166;DHT22;6146;48.128;11.476;2022-11-15T17:17:31;9.60;99.90
12166;DHT22;6146;48.128;11.476;2022-11-15T17:19:57;9.50;99.90
12166;DHT22;6146;48.128;11.476;2022-11-15T17:22:23;9.50;99.90
12166;DHT22;6146;48.128;11.476;2022-11-15T17:24:49;9.50;99.90
12166;DHT22;6146;48.128;11.476;2022-11-15T17:27:14;9.50;99.90
12166;DHT22;6146;48.128;11.476;2022-11-15T17:29:41;9.50;99.90
12166;DHT22;6146;48.128;11.476;2022-11-15T17:32:07;9.50;99.90
12166;DHT22;6146;48.128;11.476;2022-11-15T17:34:33;9.60;99.90
12166;DHT22;6146;48.128;11.476;2022-11-15T17:36:58;9.60;99.90
12166;DHT22;6146;48.128;11.476;2022-11-15T17:39:24;9.60;99.90
12166;DHT22;6146;48.128;11.476;2022-11-15T17:41:50;9.60;99.90
12166;DHT22;6146;48.128;11.476;2022-11-15T17:44:15;9.50;99.90
12166;DHT22;6146;48.128;11.476;2022-11-15T17:46:42;9.50;99.90
12166;DHT22;6146;48.128;11.476;2022-11-15T17:49:07;9.50;99.90
12166;DHT22;6146;48.128;11.476;2022-11-15T17:51:33;9.50;99.90
12166;DHT22;6146;48.128;11.476;2022-11-15T17:53:59;9.50;99.90
12166;DHT22;6146;48.128;11.476;2022-11-15T17:56:26;9.50;99.90
12166;DHT22;6146;48.128;11.476;2022-11-15T17:58:54;9.40;99.90
12166;DHT22;6146;48.128;11.476;2022-11-15T18:03:48;9.30;99.90
12166;DHT22;6146;48.128;11.476;2022-11-15T18:06:15;9.30;99.90
12166;DHT22;6146;48.128;11.476;2022-11-15T18:08:42;9.20;99.90
12166;DHT22;6146;48.128;11.476;2022-11-15T18:11:19;9.10;99.90
12166;DHT22;6146;48.128;11.476;2022-11-15T18:13:50;9.00;99.90